createdAt,value
2023-02-06T00:00:54.138Z,13.80
2023-02-06T00:03:20.754Z,17.10
2023-02-06T00:05:58.756Z,18.03
2023-02-06T00:08:26.868Z,18.53
2023-02-06T00:10:54.077Z,19.03
2023-02-06T00:13:20.864Z,12.17
2023-02-06T00:15:47.415Z,14.10
2023-02-06T00:18:13.860Z,13.40
2023-02-06T00:20:40.365Z,19.73
2023-02-06T00:23:06.729Z,20.13
2023-02-06T00:25:33.222Z,11.80
2023-02-06T00:27:59.805Z,18.07
2023-02-06T00:30:26.474Z,18.20
2023-02-06T00:32:52.943Z,12.97
2023-02-06T00:35:19.640Z,16.17
2023-02-06T00:37:46.014Z,14.30
2023-02-06T00:40:12.365Z,17.57
2023-02-06T00:42:38.877Z,14.97
2023-02-06T00:45:05.906Z,17.50
2023-02-06T00:47:32.343Z,22.30
2023-02-06T00:49:58.825Z,16.77
2023-02-06T00:52:25.202Z,20.33
2023-02-06T00:54:51.654Z,16.40
2023-02-06T00:57:18.195Z,20.17
2023-02-06T00:59:44.575Z,22.77
2023-02-06T01:02:11.054Z,18.47
2023-02-06T01:04:37.531Z,18.70
2023-02-06T01:07:03.908Z,17.63
2023-02-06T01:09:30.475Z,21.43
2023-02-06T01:11:57.062Z,19.13
2023-02-06T01:14:23.680Z,19.33
2023-02-06T01:16:50.041Z,22.17
2023-02-06T01:19:16.704Z,20.03
2023-02-06T01:21:43.095Z,14.67
2023-02-06T01:24:09.478Z,16.83
2023-02-06T01:26:35.953Z,15.20
2023-02-06T01:29:03.159Z,11.70
2023-02-06T01:31:30.286Z,12.27
2023-02-06T01:33:59.301Z,21.67
2023-02-06T01:36:26.260Z,15.20
2023-02-06T01:38:52.929Z,16.30
2023-02-06T01:41:22.813Z,13.43
2023-02-06T01:44:11.169Z,16.17
2023-02-06T01:46:39.157Z,13.80
2023-02-06T01:49:08.672Z,12.37
2023-02-06T01:51:35.670Z,19.73
2023-02-06T01:54:05.318Z,18.63
2023-02-06T01:56:37.101Z,17.87
2023-02-06T01:59:05.261Z,17.47
2023-02-06T02:01:33.487Z,13.97
2023-02-06T02:04:07.213Z,10.13
2023-02-06T02:06:35.155Z,16.53
2023-02-06T02:09:03.689Z,12.03
2023-02-06T02:11:36.671Z,13.77
2023-02-06T02:14:06.307Z,13.80
2023-02-06T02:16:38.996Z,15.67
2023-02-06T02:19:40.267Z,15.47
2023-02-06T02:22:31.357Z,21.90
2023-02-06T02:25:35.563Z,22.97
2023-02-06T02:28:39.323Z,18.47
2023-02-06T02:31:38.908Z,20.23
2023-02-06T02:34:32.953Z,17.40
2023-02-06T02:37:33.575Z,28.83
2023-02-06T02:40:28.439Z,19.97
2023-02-06T02:43:04.642Z,27.37
2023-02-06T02:45:50.628Z,23.70
2023-02-06T02:48:24.296Z,20.27
2023-02-06T02:50:54.183Z,23.77
2023-02-06T02:53:21.188Z,25.23
2023-02-06T02:55:48.001Z,22.80
2023-02-06T02:58:18.242Z,27.17
2023-02-06T03:00:58.651Z,27.70
2023-02-06T03:03:28.967Z,22.83
2023-02-06T03:06:13.570Z,22.27
2023-02-06T03:08:58.542Z,20.07
2023-02-06T03:11:25.305Z,25.50
2023-02-06T03:14:06.240Z,22.03
2023-02-06T03:16:45.378Z,23.50
2023-02-06T03:19:14.494Z,22.83
2023-02-06T03:21:42.788Z,28.03
2023-02-06T03:24:14.457Z,24.87
2023-02-06T03:26:43.356Z,21.90
2023-02-06T03:29:12.952Z,20.40
2023-02-06T03:31:46.362Z,30.80
2023-02-06T03:34:16.790Z,27.80
2023-02-06T03:36:43.644Z,27.13
2023-02-06T03:39:10.153Z,26.23
2023-02-06T03:41:38.930Z,21.70
2023-02-06T03:44:09.282Z,23.03
2023-02-06T03:46:38.527Z,35.47
2023-02-06T03:49:07.972Z,19.83
2023-02-06T03:51:46.568Z,24.30
2023-02-06T03:54:16.896Z,20.77
2023-02-06T03:56:48.695Z,27.37
2023-02-06T03:59:15.218Z,17.93
2023-02-06T04:01:49.220Z,31.10
2023-02-06T04:04:18.249Z,26.63
2023-02-06T04:06:44.912Z,23.87
2023-02-06T04:09:11.720Z,25.63
2023-02-06T04:11:38.450Z,20.97
2023-02-06T04:14:04.878Z,26.13
2023-02-06T04:16:31.293Z,26.47
2023-02-06T04:18:57.808Z,30.30
2023-02-06T04:21:24.274Z,26.00
2023-02-06T04:23:50.668Z,23.00
2023-02-06T04:26:17.158Z,31.43
2023-02-06T04:28:43.618Z,22.63
2023-02-06T04:31:10.140Z,23.00
2023-02-06T04:33:36.553Z,24.07
2023-02-06T04:36:03.082Z,15.47
2023-02-06T04:38:29.438Z,28.47
2023-02-06T04:40:55.796Z,20.63
2023-02-06T04:43:22.315Z,21.37
2023-02-06T04:45:48.695Z,16.67
2023-02-06T04:48:15.156Z,24.17
2023-02-06T04:50:41.595Z,21.03
2023-02-06T04:53:07.986Z,15.10
2023-02-06T04:55:35.633Z,17.53
2023-02-06T04:58:02.247Z,27.30
2023-02-06T05:00:28.608Z,16.50
2023-02-06T05:02:55.058Z,16.83
2023-02-06T05:05:21.516Z,13.90
2023-02-06T05:07:48.091Z,15.77
2023-02-06T05:10:14.982Z,17.40
2023-02-06T05:12:41.529Z,21.03
2023-02-06T05:15:08.822Z,22.20
2023-02-06T05:17:35.533Z,15.77
2023-02-06T05:20:02.013Z,19.47
2023-02-06T05:22:28.419Z,15.77
2023-02-06T05:24:54.878Z,21.33
2023-02-06T05:27:21.736Z,19.40
2023-02-06T05:29:48.162Z,16.03
2023-02-06T05:32:14.614Z,21.47
2023-02-06T05:34:41.118Z,25.93
2023-02-06T05:37:07.723Z,15.87
2023-02-06T05:39:34.153Z,16.13
2023-02-06T05:42:00.709Z,19.70
2023-02-06T05:44:27.345Z,16.77
2023-02-06T05:46:54.003Z,19.27
2023-02-06T05:49:20.556Z,21.77
2023-02-06T05:51:46.916Z,22.10
2023-02-06T05:54:15.292Z,24.70
2023-02-06T05:56:41.844Z,18.33
2023-02-06T05:59:08.334Z,15.63
2023-02-06T06:01:34.696Z,22.27
2023-02-06T06:04:01.485Z,19.83
2023-02-06T06:06:28.055Z,18.97
2023-02-06T06:08:54.575Z,15.80
2023-02-06T06:11:21.924Z,15.43
2023-02-06T06:13:48.246Z,21.70
2023-02-06T06:16:14.706Z,20.67
2023-02-06T06:18:41.316Z,13.13
2023-02-06T06:21:08.220Z,13.70
2023-02-06T06:23:34.607Z,23.63
2023-02-06T06:26:01.037Z,23.93
2023-02-06T06:28:27.434Z,17.73
2023-02-06T06:31:02.080Z,24.80
2023-02-06T06:33:29.105Z,18.80
2023-02-06T06:35:55.711Z,17.93
2023-02-06T06:38:22.106Z,22.10
2023-02-06T06:40:48.570Z,18.20
2023-02-06T06:43:14.981Z,23.00
2023-02-06T06:45:41.429Z,17.43
2023-02-06T06:48:07.836Z,18.67
2023-02-06T06:50:34.263Z,28.37
2023-02-06T06:53:00.817Z,18.33
2023-02-06T06:55:27.324Z,20.57
2023-02-06T06:57:53.751Z,19.50
2023-02-06T07:00:20.372Z,26.13
2023-02-06T07:02:47.078Z,33.70
2023-02-06T07:05:13.679Z,24.57
2023-02-06T07:07:40.117Z,23.90
2023-02-06T07:10:08.559Z,17.00
2023-02-06T07:12:35.500Z,18.93
2023-02-06T07:15:02.252Z,19.57
2023-02-06T07:17:28.610Z,15.40
2023-02-06T07:19:54.976Z,19.77
2023-02-06T07:22:22.082Z,20.93
2023-02-06T07:24:48.884Z,24.30
2023-02-06T07:27:15.279Z,20.40
2023-02-06T07:29:41.749Z,25.77
2023-02-06T07:32:08.217Z,24.50
2023-02-06T07:34:35.779Z,25.23
2023-02-06T07:37:02.970Z,17.93
2023-02-06T07:39:29.367Z,20.43
2023-02-06T07:41:55.708Z,23.50
2023-02-06T07:44:22.110Z,21.10
2023-02-06T07:46:48.481Z,20.63
2023-02-06T07:49:15.443Z,23.53
2023-02-06T07:51:44.011Z,24.07
2023-02-06T07:54:11.812Z,19.10
2023-02-06T07:56:39.248Z,21.63
2023-02-06T07:59:07.488Z,35.50
2023-02-06T08:01:33.927Z,33.80
2023-02-06T08:04:00.339Z,32.17
2023-02-06T08:06:26.996Z,38.67
2023-02-06T08:08:57.024Z,47.70
2023-02-06T08:11:25.981Z,42.00
2023-02-06T08:13:52.543Z,50.50
2023-02-06T08:16:20.896Z,37.13
2023-02-06T08:18:47.572Z,36.57
2023-02-06T08:21:18.841Z,42.80
2023-02-06T08:23:45.460Z,48.70
2023-02-06T08:26:15.538Z,45.23
2023-02-06T08:28:43.829Z,42.53
2023-02-06T08:31:38.400Z,54.90
2023-02-06T08:34:06.434Z,42.40
2023-02-06T08:36:33.405Z,48.90
2023-02-06T08:39:01.771Z,47.17
2023-02-06T08:41:30.942Z,49.20
2023-02-06T08:43:59.203Z,46.67
2023-02-06T08:46:28.490Z,41.77
2023-02-06T08:49:02.974Z,42.47
2023-02-06T08:51:29.543Z,48.73
2023-02-06T08:53:57.623Z,46.43
2023-02-06T08:56:24.626Z,46.30
2023-02-06T08:58:51.535Z,46.23
2023-02-06T09:01:18.180Z,35.73
2023-02-06T09:03:45.382Z,50.37
2023-02-06T09:06:13.048Z,37.33
2023-02-06T09:08:40.402Z,39.37
2023-02-06T09:11:18.387Z,36.20
2023-02-06T09:13:49.570Z,45.13
2023-02-06T09:16:18.327Z,45.43
2023-02-06T09:18:45.205Z,34.13
2023-02-06T09:21:21.045Z,38.07
2023-02-06T09:23:50.247Z,33.23
2023-02-06T09:26:19.894Z,41.13
2023-02-06T09:28:46.896Z,38.23
2023-02-06T09:31:13.502Z,36.33
2023-02-06T09:33:40.471Z,36.87
2023-02-06T09:36:13.919Z,35.50
2023-02-06T09:38:42.834Z,42.73
2023-02-06T09:41:30.083Z,56.10
2023-02-06T09:44:04.129Z,39.97
2023-02-06T09:46:33.950Z,37.50
2023-02-06T09:49:06.863Z,36.07
2023-02-06T09:52:15.186Z,40.93
2023-02-06T09:55:06.561Z,36.97
2023-02-06T09:57:39.148Z,31.47
2023-02-06T10:00:24.803Z,35.73
2023-02-06T10:03:23.685Z,37.03
2023-02-06T10:06:12.560Z,30.70
2023-02-06T10:09:02.089Z,35.77
2023-02-06T10:11:51.288Z,34.00
2023-02-06T10:14:32.904Z,27.83
2023-02-06T10:17:26.006Z,28.53
2023-02-06T10:20:18.484Z,28.50
2023-02-06T10:22:54.404Z,32.40
2023-02-06T10:25:37.771Z,24.17
2023-02-06T10:28:27.185Z,22.63
2023-02-06T10:31:19.957Z,25.27
2023-02-06T10:33:57.716Z,24.63
2023-02-06T10:36:52.211Z,19.53
2023-02-06T10:39:49.147Z,19.77
2023-02-06T10:42:32.210Z,20.63
2023-02-06T10:45:24.687Z,20.00
2023-02-06T10:47:59.491Z,24.57
2023-02-06T10:50:28.864Z,18.67
2023-02-06T10:52:58.483Z,18.83
2023-02-06T10:55:28.218Z,21.53
2023-02-06T10:58:12.925Z,24.87
2023-02-06T11:00:40.418Z,19.83
2023-02-06T11:03:15.655Z,24.00
2023-02-06T11:05:42.099Z,23.80
2023-02-06T11:08:16.958Z,22.37
2023-02-06T11:10:43.499Z,26.87
2023-02-06T11:13:14.667Z,22.93
2023-02-06T11:15:52.854Z,26.73
2023-02-06T11:18:24.059Z,29.70
2023-02-06T11:20:51.409Z,28.50
2023-02-06T11:23:22.954Z,28.73
2023-02-06T11:26:06.048Z,30.37
2023-02-06T11:28:34.686Z,39.00
2023-02-06T11:31:07.482Z,28.23
2023-02-06T11:33:46.452Z,31.63
2023-02-06T11:36:28.091Z,21.83
2023-02-06T11:39:02.059Z,29.57
2023-02-06T11:41:30.323Z,32.70
2023-02-06T11:44:02.626Z,23.37
2023-02-06T11:46:32.513Z,34.07
2023-02-06T11:49:23.035Z,33.03
2023-02-06T11:51:51.755Z,24.93
2023-02-06T11:54:35.510Z,25.50
2023-02-06T11:57:08.005Z,23.60
2023-02-06T11:59:37.251Z,22.83
2023-02-06T12:02:30.192Z,22.47
2023-02-06T12:05:13.454Z,25.97
2023-02-06T12:07:46.047Z,26.57
2023-02-06T12:10:20.777Z,22.50
2023-02-06T12:12:54.094Z,23.47
2023-02-06T12:15:45.297Z,22.17
2023-02-06T12:18:17.408Z,30.23
2023-02-06T12:21:06.650Z,23.20
2023-02-06T12:24:05.247Z,23.40
2023-02-06T12:26:34.879Z,19.67
2023-02-06T12:29:08.119Z,20.60
2023-02-06T12:31:50.617Z,20.77
2023-02-06T12:34:22.078Z,24.07
2023-02-06T12:37:10.791Z,16.53
2023-02-06T12:39:37.328Z,18.53
2023-02-06T12:42:31.978Z,21.37
2023-02-06T12:45:32.399Z,20.03
2023-02-06T12:48:12.294Z,20.10
2023-02-06T12:50:46.502Z,20.90
2023-02-06T12:53:20.423Z,21.43
2023-02-06T12:56:04.560Z,18.20
2023-02-06T12:58:58.739Z,21.60
2023-02-06T13:01:47.017Z,19.70
2023-02-06T13:04:18.754Z,18.57
2023-02-06T13:07:09.262Z,19.70
2023-02-06T13:09:46.660Z,20.27
2023-02-06T13:12:21.726Z,19.57
2023-02-06T13:14:53.466Z,21.90
2023-02-06T13:17:32.576Z,22.07
2023-02-06T13:20:08.932Z,22.70
2023-02-06T13:22:38.596Z,18.53
2023-02-06T13:25:30.108Z,21.47
2023-02-06T13:28:01.852Z,28.77
2023-02-06T13:30:31.547Z,21.03
2023-02-06T13:33:10.802Z,30.53
2023-02-06T13:35:55.196Z,24.73
2023-02-06T13:38:24.342Z,23.57
2023-02-06T13:41:12.682Z,24.50
2023-02-06T13:43:56.093Z,20.57
2023-02-06T13:46:33.400Z,27.73
2023-02-06T13:49:22.178Z,26.47
2023-02-06T13:52:15.643Z,24.37
2023-02-06T13:54:55.370Z,24.83
2023-02-06T13:57:49.586Z,23.27
2023-02-06T14:00:22.308Z,25.93
2023-02-06T14:02:56.438Z,24.10
2023-02-06T14:05:30.810Z,23.63
2023-02-06T14:08:18.820Z,23.63
2023-02-06T14:11:04.918Z,18.70
2023-02-06T14:13:44.127Z,19.57
2023-02-06T14:16:35.287Z,17.03
2023-02-06T14:19:25.661Z,16.03
2023-02-06T14:21:56.784Z,20.37
2023-02-06T14:24:38.161Z,15.03
2023-02-06T14:27:23.527Z,16.77
2023-02-06T14:30:18.412Z,17.03
2023-02-06T14:32:54.226Z,14.27
2023-02-06T14:36:02.934Z,17.47
2023-02-06T14:39:02.170Z,13.87
2023-02-06T14:41:31.609Z,14.10
2023-02-06T14:43:59.486Z,14.57
2023-02-06T14:46:27.325Z,11.23
2023-02-06T14:48:57.252Z,14.37
2023-02-06T14:51:31.083Z,10.90
2023-02-06T14:54:04.121Z,10.00
2023-02-06T14:56:33.797Z,8.03
2023-02-06T14:59:12.391Z,12.07
2023-02-06T15:01:40.079Z,5.57
2023-02-06T15:04:15.859Z,9.50
2023-02-06T15:07:03.048Z,4.93
2023-02-06T15:09:31.556Z,8.00
2023-02-06T15:12:01.137Z,8.27
2023-02-06T15:14:34.270Z,8.73
2023-02-06T15:17:02.676Z,5.17
2023-02-06T15:19:35.591Z,6.07
2023-02-06T15:22:13.036Z,8.17
2023-02-06T15:25:04.854Z,6.83
2023-02-06T15:27:34.169Z,8.50
2023-02-06T15:30:02.336Z,6.60
2023-02-06T15:32:38.826Z,6.70
2023-02-06T15:35:19.918Z,9.13
2023-02-06T15:37:46.562Z,5.53
2023-02-06T15:40:20.872Z,10.73
2023-02-06T15:42:48.718Z,6.80
2023-02-06T15:45:22.464Z,8.80
2023-02-06T15:47:51.445Z,10.53
2023-02-06T15:50:25.187Z,8.97
2023-02-06T15:52:51.782Z,6.70
2023-02-06T15:55:37.745Z,8.70
2023-02-06T15:58:05.323Z,8.43
2023-02-06T16:00:36.973Z,5.93
2023-02-06T16:03:07.750Z,9.80
2023-02-06T16:05:37.965Z,10.43
2023-02-06T16:08:05.281Z,6.20
2023-02-06T16:10:37.615Z,12.43
2023-02-06T16:13:11.002Z,9.83
2023-02-06T16:15:39.698Z,11.23
2023-02-06T16:18:24.562Z,11.90
2023-02-06T16:20:51.269Z,13.37
2023-02-06T16:23:23.852Z,14.97
2023-02-06T16:26:12.923Z,9.67
2023-02-06T16:29:02.014Z,15.97
2023-02-06T16:31:30.908Z,13.23
2023-02-06T16:34:03.282Z,14.87
2023-02-06T16:36:32.342Z,16.33
2023-02-06T16:39:03.979Z,15.33
2023-02-06T16:41:34.694Z,16.20
2023-02-06T16:44:02.444Z,22.93
2023-02-06T16:46:29.380Z,16.87
2023-02-06T16:48:56.530Z,17.37
2023-02-06T16:51:25.929Z,17.27
2023-02-06T16:53:52.990Z,17.93
2023-02-06T16:56:21.659Z,17.87
2023-02-06T16:58:48.451Z,17.33
2023-02-06T17:01:25.283Z,16.23
2023-02-06T17:03:52.698Z,18.10
2023-02-06T17:06:23.623Z,14.97
2023-02-06T17:08:52.000Z,12.97
2023-02-06T17:11:18.565Z,13.13
2023-02-06T17:13:45.235Z,15.70
2023-02-06T17:16:17.573Z,15.83
2023-02-06T17:18:44.503Z,16.23
2023-02-06T17:21:20.847Z,14.57
2023-02-06T17:23:49.306Z,14.17
2023-02-06T17:26:21.832Z,19.43
2023-02-06T17:28:48.845Z,13.53
2023-02-06T17:31:15.860Z,15.43
2023-02-06T17:33:42.340Z,13.40
2023-02-06T17:36:16.778Z,11.53
2023-02-06T17:38:43.709Z,12.43
2023-02-06T17:41:10.303Z,15.23
2023-02-06T17:43:37.549Z,11.90
2023-02-06T17:46:05.122Z,12.70
2023-02-06T17:48:36.407Z,15.17
2023-02-06T17:51:04.377Z,13.10
2023-02-06T17:53:30.952Z,14.83
2023-02-06T17:55:57.357Z,20.83
2023-02-06T17:58:23.846Z,15.23
2023-02-06T18:00:50.408Z,14.63
2023-02-06T18:03:18.273Z,13.03
2023-02-06T18:05:47.039Z,14.40
2023-02-06T18:08:13.609Z,10.47
2023-02-06T18:10:39.979Z,13.47
2023-02-06T18:13:06.582Z,10.70
2023-02-06T18:15:33.112Z,13.73
2023-02-06T18:18:00.114Z,9.07
2023-02-06T18:20:26.611Z,10.93
2023-02-06T18:22:53.239Z,12.40
2023-02-06T18:25:19.679Z,14.17
2023-02-06T18:27:46.320Z,13.07
2023-02-06T18:30:14.592Z,20.10
2023-02-06T18:32:41.416Z,12.53
2023-02-06T18:35:09.331Z,13.10
2023-02-06T18:37:35.858Z,15.13
2023-02-06T18:40:02.766Z,15.07
2023-02-06T18:42:48.024Z,13.23
2023-02-06T18:45:14.496Z,16.40
2023-02-06T18:47:42.357Z,13.30
2023-02-06T18:50:10.761Z,9.73
2023-02-06T18:52:37.244Z,13.00
2023-02-06T18:55:04.534Z,11.30
2023-02-06T18:57:31.068Z,10.63
2023-02-06T18:59:58.748Z,13.03
2023-02-06T19:02:25.729Z,8.83
2023-02-06T19:04:52.301Z,7.47
2023-02-06T19:07:18.788Z,10.50
2023-02-06T19:09:45.220Z,10.13
2023-02-06T19:12:11.751Z,7.27
2023-02-06T19:14:39.847Z,12.60
2023-02-06T19:17:06.253Z,7.13
2023-02-06T19:19:32.779Z,14.60
2023-02-06T19:21:59.214Z,12.47
2023-02-06T19:24:27.738Z,10.10
2023-02-06T19:26:54.271Z,9.67
2023-02-06T19:29:34.428Z,8.70
2023-02-06T19:32:03.616Z,14.10
2023-02-06T19:34:30.276Z,9.47
2023-02-06T19:36:56.770Z,12.73
2023-02-06T19:39:23.152Z,16.73
2023-02-06T19:41:49.529Z,14.30
2023-02-06T19:44:16.106Z,12.77
2023-02-06T19:46:42.487Z,13.30
2023-02-06T19:49:11.135Z,13.87
2023-02-06T19:51:41.756Z,14.67
2023-02-06T19:54:08.385Z,12.00
2023-02-06T19:56:39.320Z,16.17
2023-02-06T19:59:19.451Z,16.93
2023-02-06T20:01:54.546Z,14.50
2023-02-06T20:04:23.908Z,17.77
2023-02-06T20:06:51.104Z,11.70
2023-02-06T20:09:19.507Z,13.70
2023-02-06T20:11:46.159Z,9.03
2023-02-06T20:14:12.742Z,14.23
2023-02-06T20:16:41.400Z,12.57
2023-02-06T20:19:13.986Z,13.00
2023-02-06T20:21:43.279Z,14.63
2023-02-06T20:24:13.435Z,11.37
2023-02-06T20:26:42.069Z,8.87
2023-02-06T20:29:15.971Z,12.90
2023-02-06T20:31:42.499Z,11.53
2023-02-06T20:34:09.128Z,9.70
2023-02-06T20:36:35.502Z,13.93
2023-02-06T20:39:02.291Z,11.87
2023-02-06T20:41:31.353Z,12.00
2023-02-06T20:43:59.456Z,13.33
2023-02-06T20:46:29.567Z,17.53
2023-02-06T20:48:58.650Z,11.27
2023-02-06T20:51:26.001Z,15.30
2023-02-06T20:53:53.457Z,18.13
2023-02-06T20:56:20.957Z,15.20
2023-02-06T20:58:49.305Z,20.33
2023-02-06T21:01:18.195Z,16.10
2023-02-06T21:03:46.381Z,17.07
2023-02-06T21:06:13.968Z,17.17
2023-02-06T21:08:41.458Z,14.20
2023-02-06T21:11:08.758Z,16.37
2023-02-06T21:13:35.296Z,17.97
2023-02-06T21:16:02.355Z,18.07
2023-02-06T21:18:31.011Z,17.17
2023-02-06T21:21:06.537Z,13.37
2023-02-06T21:23:33.375Z,16.40
2023-02-06T21:25:59.766Z,13.10
2023-02-06T21:28:26.386Z,14.17
2023-02-06T21:31:00.330Z,19.13
2023-02-06T21:33:26.926Z,12.63
2023-02-06T21:35:53.513Z,15.60
2023-02-06T21:38:20.770Z,12.90
2023-02-06T21:40:47.305Z,14.07
2023-02-06T21:43:15.172Z,13.87
2023-02-06T21:45:44.102Z,14.03
2023-02-06T21:48:10.476Z,17.97
2023-02-06T21:50:38.303Z,16.20
2023-02-06T21:53:05.227Z,14.90
2023-02-06T21:55:32.482Z,16.90
2023-02-06T21:58:00.979Z,11.63
2023-02-06T22:00:28.537Z,11.93
2023-02-06T22:02:55.019Z,16.60
2023-02-06T22:05:21.465Z,14.53
2023-02-06T22:07:47.997Z,14.63
2023-02-06T22:10:14.856Z,13.10
2023-02-06T22:12:41.208Z,12.80
2023-02-06T22:15:08.151Z,16.33
2023-02-06T22:17:34.933Z,13.20
2023-02-06T22:20:01.312Z,14.97
2023-02-06T22:22:27.675Z,11.43
2023-02-06T22:24:54.124Z,17.37
2023-02-06T22:27:20.554Z,11.57
2023-02-06T22:29:47.083Z,15.07
2023-02-06T22:32:13.620Z,15.57
2023-02-06T22:34:40.019Z,10.77
2023-02-06T22:37:06.464Z,16.30
2023-02-06T22:39:32.994Z,14.97
2023-02-06T22:41:59.432Z,17.73
2023-02-06T22:44:25.956Z,16.03
2023-02-06T22:46:53.187Z,15.13
2023-02-06T22:49:21.103Z,15.60
2023-02-06T22:51:47.577Z,13.90
2023-02-06T22:54:14.543Z,9.43
2023-02-06T22:56:42.461Z,12.13
2023-02-06T22:59:19.273Z,16.10
2023-02-06T23:01:51.262Z,17.70
2023-02-06T23:04:20.734Z,14.40
2023-02-06T23:06:47.838Z,13.50
2023-02-06T23:09:17.643Z,16.50
2023-02-06T23:11:44.405Z,13.90
2023-02-06T23:14:12.819Z,14.50
2023-02-06T23:16:39.415Z,14.43
2023-02-06T23:19:07.119Z,18.53
2023-02-06T23:21:36.970Z,11.87
2023-02-06T23:24:05.210Z,13.57
2023-02-06T23:26:32.415Z,14.30
2023-02-06T23:29:01.054Z,13.93
2023-02-06T23:31:28.154Z,13.80
2023-02-06T23:33:55.085Z,17.40
2023-02-06T23:36:24.434Z,12.37
2023-02-06T23:38:51.980Z,14.47
2023-02-06T23:41:24.792Z,13.10
2023-02-06T23:43:57.381Z,12.87
2023-02-06T23:46:24.625Z,14.37
2023-02-06T23:48:51.693Z,13.70
2023-02-06T23:51:19.178Z,13.80
2023-02-06T23:53:45.684Z,11.70
2023-02-06T23:56:14.147Z,11.87
2023-02-06T23:58:40.794Z,10.87
